Time;durP1;ratioP1;P1;durP2;ratioP2;P2;SDS_P1;SDS_P2;PMS_P1;PMS_P2;Temp;Humidity;BMP_temperature;BMP_pressure;BME280_temperature;BME280_humidity;BME280_pressure;Samples;Min_cycle;Max_cycle;Signal;HPM_P1;HPM_P2
2023/06/19 00:01:18;;;;;;;12.93;7.97;;;;;;;17.19;100.00;92662.00;4751358;30;20418;-76
2023/06/19 00:03:44;;;;;;;9.52;7.35;;;;;;;17.16;100.00;92670.56;4760709;30;20048;-76
2023/06/19 00:06:12;;;;;;;9.35;7.32;;;;;;;17.14;100.00;92672.78;4767914;30;20040;-76
2023/06/19 00:08:38;;;;;;;10.20;7.20;;;;;;;17.13;100.00;92671.97;4769275;30;20044;-76
2023/06/19 00:11:03;;;;;;;10.95;7.93;;;;;;;17.13;100.00;92671.97;4767747;30;20062;-76
2023/06/19 00:13:29;;;;;;;12.95;7.43;;;;;;;17.13;100.00;92666.69;4766644;30;20036;-76
2023/06/19 00:15:55;;;;;;;12.90;7.90;;;;;;;17.13;100.00;92660.63;4751886;30;20051;-76
2023/06/19 00:18:20;;;;;;;9.90;7.57;;;;;;;17.12;100.00;92656.44;4749827;30;20056;-76
2023/06/19 00:20:46;;;;;;;11.25;7.47;;;;;;;17.12;100.00;92653.81;4735096;30;20074;-76
2023/06/19 00:23:14;;;;;;;9.98;7.45;;;;;;;17.13;100.00;92657.97;4750957;30;20070;-75
2023/06/19 00:25:41;;;;;;;9.38;7.40;;;;;;;17.08;100.00;92660.81;4750992;30;20094;-76
2023/06/19 00:28:11;;;;;;;10.88;8.07;;;;;;;17.06;100.00;92648.69;4750511;30;20444;-75
2023/06/19 00:30:37;;;;;;;10.90;8.10;;;;;;;17.03;100.00;92656.50;4749710;30;20546;-76
2023/06/19 00:33:03;;;;;;;10.32;8.00;;;;;;;16.99;100.00;92660.88;4749448;30;20450;-76
2023/06/19 00:35:29;;;;;;;10.15;7.47;;;;;;;16.96;100.00;92667.59;4748600;30;20040;-75
2023/06/19 00:37:54;;;;;;;11.07;7.90;;;;;;;16.94;100.00;92669.00;4750827;30;20048;-76
2023/06/19 00:40:31;;;;;;;12.00;7.45;;;;;;;16.93;100.00;92662.16;4750295;30;20044;-76
2023/06/19 00:42:57;;;;;;;9.15;7.60;;;;;;;16.92;100.00;92671.19;4750409;30;20040;-76
2023/06/19 00:45:26;;;;;;;9.55;7.53;;;;;;;16.91;100.00;92669.63;4750553;30;20106;-75
2023/06/19 00:47:53;;;;;;;11.77;7.80;;;;;;;16.90;100.00;92670.72;4750952;30;20055;-75
2023/06/19 00:50:20;;;;;;;10.45;7.80;;;;;;;16.90;100.00;92674.16;4749375;30;20051;-75
2023/06/19 00:52:45;;;;;;;10.52;8.35;;;;;;;16.89;100.00;92669.97;4750190;30;20517;-76
2023/06/19 00:55:11;;;;;;;10.63;7.78;;;;;;;16.89;100.00;92674.44;4750296;30;20044;-76
2023/06/19 00:57:39;;;;;;;11.25;7.45;;;;;;;16.84;100.00;92681.50;4734820;30;20052;-76
2023/06/19 01:00:07;;;;;;;10.57;6.93;;;;;;;16.83;100.00;92679.94;4746632;30;20040;-76
2023/06/19 01:02:32;;;;;;;11.18;7.32;;;;;;;16.84;100.00;92675.41;4720214;30;20053;-76
2023/06/19 01:04:58;;;;;;;10.32;7.60;;;;;;;16.79;100.00;92679.03;4749254;30;20418;-76
2023/06/19 01:07:41;;;;;;;14.18;7.93;;;;;;;16.81;100.00;92686.63;4750047;30;20127;-76
2023/06/19 01:10:11;;;;;;;10.02;7.80;;;;;;;16.80;100.00;92685.88;4750635;30;20106;-75
2023/06/19 01:12:44;;;;;;;10.35;7.75;;;;;;;16.77;100.00;92689.09;4750268;30;20412;-76
2023/06/19 01:15:11;;;;;;;15.40;7.97;;;;;;;16.75;100.00;92687.88;4749027;30;20040;-76
2023/06/19 01:17:37;;;;;;;11.02;8.02;;;;;;;16.73;100.00;92688.22;4750344;30;20113;-76
2023/06/19 01:20:10;;;;;;;13.57;8.02;;;;;;;16.71;100.00;92687.00;4750029;30;20048;-76
2023/06/19 01:22:37;;;;;;;9.88;7.65;;;;;;;16.65;100.00;92681.09;4748868;30;20508;-76
2023/06/19 01:25:05;;;;;;;12.73;8.30;;;;;;;16.62;100.00;92689.66;4734075;30;20036;-76
2023/06/19 01:27:31;;;;;;;11.90;7.68;;;;;;;16.60;100.00;92689.22;4750102;30;20454;-76
2023/06/19 01:30:00;;;;;;;10.80;7.90;;;;;;;16.59;100.00;92696.34;4748677;30;20054;-76
2023/06/19 01:32:33;;;;;;;9.20;7.57;;;;;;;16.57;100.00;92692.47;4749964;30;20102;-76
2023/06/19 01:35:01;;;;;;;9.65;7.40;;;;;;;16.56;100.00;92694.34;4749747;30;20036;-76
2023/06/19 01:37:28;;;;;;;11.80;7.72;;;;;;;16.55;100.00;92698.09;4750199;30;20256;-76
2023/06/19 01:39:59;;;;;;;13.10;7.80;;;;;;;16.55;100.00;92702.59;4748749;30;20551;-76
2023/06/19 01:42:26;;;;;;;9.93;7.63;;;;;;;16.54;100.00;92695.75;4734331;30;20056;-76
2023/06/19 01:44:53;;;;;;;11.23;7.82;;;;;;;16.53;100.00;92702.16;4751125;30;20040;-76
2023/06/19 01:47:19;;;;;;;11.32;8.20;;;;;;;16.50;100.00;92702.75;4752183;30;20139;-76
2023/06/19 01:49:48;;;;;;;14.00;8.05;;;;;;;16.48;100.00;92705.72;4752526;30;20036;-76
2023/06/19 01:52:13;;;;;;;11.77;7.82;;;;;;;16.47;100.00;92704.19;4737482;30;20471;-76
2023/06/19 01:54:39;;;;;;;13.25;8.15;;;;;;;16.44;100.00;92705.59;4753055;30;20486;-75
2023/06/19 01:57:06;;;;;;;12.43;8.02;;;;;;;16.43;100.00;92704.03;4766556;30;20404;-76
2023/06/19 01:59:31;;;;;;;9.32;7.60;;;;;;;16.43;100.00;92701.38;4769758;30;20127;-76
2023/06/19 02:01:57;;;;;;;10.88;8.13;;;;;;;16.42;100.00;92691.91;4769724;30;20163;-75
2023/06/19 02:04:22;;;;;;;9.90;7.68;;;;;;;16.43;100.00;92695.31;4769998;30;20040;-76
2023/06/19 02:06:48;;;;;;;9.82;7.75;;;;;;;16.42;100.00;92691.91;4754632;30;20044;-76
2023/06/19 02:09:14;;;;;;;12.07;7.93;;;;;;;16.44;100.00;92687.09;4753241;30;20494;-76
2023/06/19 02:11:40;;;;;;;11.07;7.97;;;;;;;16.44;100.00;92687.09;4751787;30;20067;-76
2023/06/19 02:14:06;;;;;;;12.20;7.70;;;;;;;16.39;100.00;92692.56;4751623;30;20443;-76
2023/06/19 02:16:31;;;;;;;12.50;8.52;;;;;;;16.38;100.00;92684.94;4752950;30;20040;-76
2023/06/19 02:18:57;;;;;;;14.70;7.97;;;;;;;16.36;100.00;92687.13;4751592;30;20512;-76
2023/06/19 02:21:23;;;;;;;11.00;8.43;;;;;;;16.33;100.00;92685.91;4737066;30;20044;-76
2023/06/19 02:23:50;;;;;;;9.60;8.25;;;;;;;16.31;100.00;92685.44;4763061;30;20569;-76
2023/06/19 02:26:16;;;;;;;10.50;7.47;;;;;;;16.30;100.00;92686.53;4770710;30;20075;-76
2023/06/19 02:28:42;;;;;;;11.15;8.10;;;;;;;16.29;100.00;92692.13;4767893;30;20040;-76
2023/06/19 02:31:07;;;;;;;11.60;7.68;;;;;;;16.28;100.00;92691.34;4769431;30;20048;-75
2023/06/19 02:33:33;;;;;;;12.50;8.00;;;;;;;16.26;100.00;92690.09;4769252;30;20529;-76
2023/06/19 02:36:00;;;;;;;10.13;8.20;;;;;;;16.25;100.00;92691.97;4769636;30;20048;-76
2023/06/19 02:38:26;;;;;;;11.40;8.50;;;;;;;16.26;100.00;92687.47;4769118;30;20550;-76
2023/06/19 02:40:52;;;;;;;11.43;7.53;;;;;;;16.23;100.00;92686.22;4768837;30;20526;-76
2023/06/19 02:43:17;;;;;;;12.02;8.07;;;;;;;16.22;100.00;92693.38;4770419;30;20071;-76
2023/06/19 02:45:43;;;;;;;13.88;8.10;;;;;;;16.21;100.00;92693.69;4769154;30;20119;-75
2023/06/19 02:48:09;;;;;;;9.70;7.68;;;;;;;16.20;100.00;92684.22;4770420;30;20047;-76
2023/06/19 02:50:35;;;;;;;11.23;8.20;;;;;;;16.19;100.00;92682.69;4753964;30;20047;-76
2023/06/19 02:53:01;;;;;;;9.82;7.68;;;;;;;16.18;100.00;92689.81;4767391;30;20040;-76
2023/06/19 02:55:26;;;;;;;10.18;8.05;;;;;;;16.18;100.00;92686.41;4751264;30;20143;-76
2023/06/19 02:57:52;;;;;;;11.95;8.35;;;;;;;16.17;100.00;92690.16;4750327;30;20082;-76
2023/06/19 03:00:18;;;;;;;11.15;7.75;;;;;;;16.15;100.00;92690.47;4752429;30;20040;-76
2023/06/19 03:02:48;;;;;;;11.73;7.80;;;;;;;16.14;100.00;92688.13;4751213;30;20051;-76
2023/06/19 03:05:16;;;;;;;10.63;7.72;;;;;;;16.13;100.00;92694.50;4755656;30;20105;-76
2023/06/19 03:07:42;;;;;;;11.85;8.10;;;;;;;16.12;100.00;92687.66;4768774;30;20023;-76
2023/06/19 03:10:08;;;;;;;10.57;7.90;;;;;;;16.14;100.00;92690.75;4768909;30;20051;-76
2023/06/19 03:12:34;;;;;;;10.35;7.53;;;;;;;16.13;100.00;92694.50;4770354;30;20118;-76
2023/06/19 03:15:00;;;;;;;10.68;7.65;;;;;;;16.11;100.00;92692.16;4765895;30;20115;-76
2023/06/19 03:17:28;;;;;;;10.52;7.90;;;;;;;16.11;100.00;92696.69;4750397;30;20067;-75
2023/06/19 03:19:53;;;;;;;9.93;7.68;;;;;;;16.10;100.00;92697.75;4750536;30;20106;-76
2023/06/19 03:22:20;;;;;;;10.57;8.13;;;;;;;16.09;100.00;92697.00;4750821;30;20135;-76
2023/06/19 03:24:46;;;;;;;10.25;8.25;;;;;;;16.09;100.00;92702.28;4751822;30;20044;-76
2023/06/19 03:27:18;;;;;;;16.80;8.27;;;;;;;16.08;100.00;92689.41;4750950;30;20056;-76
2023/06/19 03:29:44;;;;;;;9.40;7.85;;;;;;;16.05;100.00;92693.41;4752217;30;20040;-76
2023/06/19 03:32:13;;;;;;;11.60;8.20;;;;;;;16.05;100.00;92698.69;4750523;30;20040;-76
2023/06/19 03:34:40;;;;;;;10.98;7.90;;;;;;;16.04;100.00;92702.44;4735329;30;20588;-76
2023/06/19 03:37:07;;;;;;;10.00;7.60;;;;;;;16.02;100.00;92692.19;4750369;30;20048;-76
2023/06/19 03:39:34;;;;;;;10.63;7.85;;;;;;;16.03;100.00;92696.41;4750215;30;20052;-76
2023/06/19 03:42:06;;;;;;;10.40;7.80;;;;;;;16.03;100.00;92696.41;4748021;30;20071;-76
2023/06/19 03:44:32;;;;;;;9.40;7.28;;;;;;;16.02;100.00;92700.09;4767777;30;20134;-75
2023/06/19 03:46:58;;;;;;;11.40;7.88;;;;;;;16.04;100.00;92697.16;4767905;30;20114;-75
2023/06/19 03:49:23;;;;;;;9.93;7.72;;;;;;;16.06;100.00;92704.78;4767938;30;20032;-76
2023/06/19 03:51:49;;;;;;;10.98;7.80;;;;;;;16.07;100.00;92693.13;4769121;30;20042;-76
2023/06/19 03:54:15;;;;;;;10.38;7.60;;;;;;;16.08;100.00;92703.38;4767498;30;20048;-76
2023/06/19 03:56:41;;;;;;;9.95;7.97;;;;;;;16.10;100.00;92689.84;4767991;30;20040;-76
2023/06/19 03:59:07;;;;;;;14.40;7.97;;;;;;;16.12;100.00;92698.22;4767681;30;20125;-76
2023/06/19 04:01:32;;;;;;;8.93;7.25;;;;;;;16.12;100.00;92700.84;4769449;30;20086;-76
2023/06/19 04:03:59;;;;;;;10.20;7.85;;;;;;;16.16;100.00;92696.50;4768970;30;20054;-76
2023/06/19 04:06:24;;;;;;;10.20;7.50;;;;;;;16.19;100.00;92703.81;4759600;30;20039;-76
2023/06/19 04:08:51;;;;;;;11.77;7.50;;;;;;;16.22;100.00;92696.03;4749895;30;20055;-76
2023/06/19 04:11:17;;;;;;;10.48;7.82;;;;;;;16.25;100.00;92691.97;4749819;30;20048;-76
2023/06/19 04:13:44;;;;;;;10.02;7.65;;;;;;;16.28;100.00;92699.28;4749827;30;20048;-76
2023/06/19 04:16:11;;;;;;;10.68;7.63;;;;;;;16.31;100.00;92690.72;4735270;30;20601;-76
2023/06/19 04:18:37;;;;;;;14.02;7.90;;;;;;;16.35;100.00;92689.00;4759667;30;20135;-75
2023/06/19 04:21:03;;;;;;;10.50;7.57;;;;;;;16.40;100.00;92690.69;4767383;30;20043;-76
2023/06/19 04:23:30;;;;;;;10.63;8.13;;;;;;;16.45;100.00;92696.56;4745539;30;20040;-75
2023/06/19 04:25:56;;;;;;;11.23;8.27;;;;;;;16.53;100.00;92696.88;4749711;30;20411;-75
2023/06/19 04:28:21;;;;;;;11.07;8.30;;;;;;;16.60;100.00;92689.97;4749455;30;20089;-76
2023/06/19 04:30:47;;;;;;;12.00;8.38;;;;;;;16.67;100.00;92686.84;4751353;30;20188;-76
2023/06/19 04:33:13;;;;;;;10.23;8.07;;;;;;;16.76;100.00;92689.44;4749783;30;20105;-76
2023/06/19 04:35:40;;;;;;;10.25;7.95;;;;;;;16.84;100.00;92693.91;4751232;30;20047;-76
2023/06/19 04:38:06;;;;;;;11.95;7.95;;;;;;;16.92;100.00;92701.03;4750837;30;20043;-76
2023/06/19 04:40:32;;;;;;;12.48;8.45;;;;;;;17.01;100.00;92696.47;4750794;30;20047;-76
2023/06/19 04:42:59;;;;;;;11.25;7.78;;;;;;;17.10;100.00;92701.72;4749444;30;20040;-76
2023/06/19 04:45:24;;;;;;;10.13;7.78;;;;;;;17.17;100.00;92698.56;4750510;30;20036;-76
2023/06/19 04:47:50;;;;;;;10.55;7.90;;;;;;;17.22;100.00;92701.78;4750354;30;20042;-76
2023/06/19 04:50:16;;;;;;;10.43;7.60;;;;;;;17.30;100.00;92702.06;4750674;30;20039;-76
2023/06/19 04:52:42;;;;;;;10.15;7.72;;;;;;;17.37;100.00;92694.38;4750691;30;20052;-75
2023/06/19 04:55:10;;;;;;;12.43;8.13;;;;;;;17.44;100.00;92692.75;4750776;30;20039;-75
2023/06/19 04:57:37;;;;;;;14.70;8.75;;;;;;;17.52;100.00;92693.81;4751526;30;20031;-75
2023/06/19 05:00:06;;;;;;;10.85;8.18;;;;;;;17.60;100.00;92687.66;4749248;30;20048;-76
2023/06/19 05:02:35;;;;;;;9.38;7.60;;;;;;;17.67;100.00;92693.22;4750418;30;20036;-76
2023/06/19 05:05:03;;;;;;;10.98;7.97;;;;;;;17.77;100.00;92694.69;4750634;30;20453;-76
2023/06/19 05:07:32;;;;;;;9.48;7.43;;;;;;;17.90;100.00;92692.88;4750739;30;20054;-76
2023/06/19 05:09:59;;;;;;;10.18;7.57;;;;;;;18.00;100.00;92689.06;4750375;30;20119;-76
2023/06/19 05:12:24;;;;;;;10.80;7.85;;;;;;;18.10;100.00;92693.91;4748936;30;20048;-76
2023/06/19 05:14:50;;;;;;;10.27;8.02;;;;;;;18.23;100.00;92689.44;4750295;30;20571;-76
2023/06/19 05:17:16;;;;;;;9.65;7.80;;;;;;;18.35;100.00;92684.16;4749942;30;20044;-76
2023/06/19 05:19:41;;;;;;;10.45;7.72;;;;;;;18.50;100.00;92695.97;4767979;30;20112;-76
2023/06/19 05:22:07;;;;;;;10.20;7.38;;;;;;;18.58;100.00;92689.81;4771055;30;20047;-76
2023/06/19 05:24:33;;;;;;;11.15;7.85;;;;;;;18.70;100.00;92691.69;4771601;30;20044;-76
2023/06/19 05:26:59;;;;;;;10.05;7.30;;;;;;;18.79;100.00;92694.28;4770551;30;20556;-76
2023/06/19 05:29:25;;;;;;;13.73;8.70;;;;;;;18.85;100.00;92698.25;4761058;30;20020;-76
2023/06/19 05:31:50;;;;;;;10.98;8.48;;;;;;;18.85;100.00;92693.72;4752695;30;20125;-76
2023/06/19 05:34:17;;;;;;;10.50;7.97;;;;;;;18.85;100.00;92700.91;4753502;30;20533;-76
2023/06/19 05:36:44;;;;;;;11.50;8.05;;;;;;;18.92;100.00;92699.25;4752742;30;20036;-76
2023/06/19 05:39:10;;;;;;;10.15;7.20;;;;;;;19.01;100.00;92696.47;4759042;30;20436;-76
2023/06/19 05:41:36;;;;;;;11.07;7.93;;;;;;;19.18;100.00;92699.97;4771435;30;20137;-76
2023/06/19 05:44:01;;;;;;;9.40;7.70;;;;;;;19.36;100.00;92690.66;4771462;30;20084;-76
2023/06/19 05:46:27;;;;;;;12.50;7.60;;;;;;;19.81;100.00;92688.91;4771544;30;20055;-76
2023/06/19 05:48:54;;;;;;;10.20;7.43;;;;;;;20.35;100.00;92680.44;4769775;30;20035;-76
2023/06/19 05:51:20;;;;;;;10.60;7.88;;;;;;;20.94;100.00;92681.47;4770559;30;20118;-77
2023/06/19 05:53:46;;;;;;;10.68;7.57;;;;;;;21.45;100.00;92691.34;4769806;30;20138;-77
2023/06/19 05:56:12;;;;;;;9.70;7.40;;;;;;;21.90;99.72;92690.72;4771055;30;20044;-76
2023/06/19 05:58:39;;;;;;;9.95;6.95;;;;;;;22.40;91.07;92688.22;4771148;30;20040;-77
2023/06/19 06:01:04;;;;;;;7.75;6.60;;;;;;;22.87;89.49;92679.09;4753990;30;20079;-77
2023/06/19 06:03:30;;;;;;;9.57;7.22;;;;;;;23.31;83.71;92683.97;4771311;30;20364;-77
2023/06/19 06:06:02;;;;;;;10.30;7.03;;;;;;;23.86;78.45;92692.31;4771515;30;20043;-77
2023/06/19 06:08:31;;;;;;;9.38;6.93;;;;;;;24.17;80.83;92693.06;4771166;30;20526;-77
2023/06/19 06:10:57;;;;;;;11.82;7.45;;;;;;;24.45;78.17;92699.81;4769680;30;20110;-77
2023/06/19 06:13:23;;;;;;;8.68;7.28;;;;;;;24.73;74.00;92694.00;4771017;30;20136;-77
2023/06/19 06:15:50;;;;;;;8.50;6.53;;;;;;;25.02;73.45;92699.59;4770978;30;20510;-77
2023/06/19 06:18:16;;;;;;;8.48;7.28;;;;;;;25.15;70.60;92703.47;4768626;30;20538;-76
2023/06/19 06:20:41;;;;;;;17.98;9.27;;;;;;;25.47;74.29;92701.06;4770214;30;20040;-77
2023/06/19 06:23:07;;;;;;;16.88;9.27;;;;;;;24.46;80.50;92704.03;4752271;30;20059;-77
2023/06/19 06:25:32;;;;;;;10.82;8.85;;;;;;;23.62;83.74;92708.78;4752932;30;20043;-77
2023/06/19 06:27:58;;;;;;;13.63;9.05;;;;;;;23.25;87.78;92701.41;4737250;30;20048;-76
2023/06/19 06:30:24;;;;;;;12.13;8.57;;;;;;;23.04;90.33;92699.22;4751745;30;20048;-77
2023/06/19 06:32:49;;;;;;;12.65;9.50;;;;;;;22.84;92.42;92690.50;4751472;30;20399;-76
2023/06/19 06:35:15;;;;;;;13.50;8.98;;;;;;;22.59;96.15;92688.19;4752422;30;20040;-76
2023/06/19 06:37:41;;;;;;;13.57;9.02;;;;;;;22.42;95.26;92694.75;4752800;30;20519;-76
2023/06/19 06:40:14;;;;;;;9.85;8.60;;;;;;;22.35;94.37;92688.53;4753075;30;20249;-76
2023/06/19 06:42:40;;;;;;;13.77;9.23;;;;;;;22.15;93.79;92688.53;4753488;30;20047;-77
2023/06/19 06:45:07;;;;;;;11.40;8.85;;;;;;;21.83;99.32;92683.38;4752820;30;20040;-76
2023/06/19 06:47:33;;;;;;;12.30;8.60;;;;;;;21.93;96.16;92681.25;4752797;30;20032;-78
2023/06/19 06:49:58;;;;;;;12.18;8.55;;;;;;;21.79;98.14;92685.19;4752670;30;20052;-77
2023/06/19 06:52:24;;;;;;;11.23;8.55;;;;;;;21.63;96.78;92687.94;4752819;30;20048;-76
2023/06/19 06:54:50;;;;;;;11.80;8.48;;;;;;;21.58;98.80;92684.78;4751221;30;20507;-76
2023/06/19 06:57:16;;;;;;;10.93;8.70;;;;;;;21.90;94.89;92681.97;4752365;30;20043;-76
2023/06/19 06:59:42;;;;;;;12.63;8.63;;;;;;;22.02;95.63;92687.16;4752316;30;20032;-76
2023/06/19 07:02:07;;;;;;;15.38;9.35;;;;;;;22.03;97.82;92681.47;4752168;30;20052;-76
2023/06/19 07:04:33;;;;;;;18.85;9.00;;;;;;;22.26;95.97;92680.75;4753160;30;20135;-76
2023/06/19 07:06:59;;;;;;;12.48;8.73;;;;;;;22.11;98.35;92678.94;4752484;30;20067;-76
2023/06/19 07:09:24;;;;;;;12.18;8.85;;;;;;;22.06;97.66;92677.31;4750527;30;20055;-77
2023/06/19 07:11:50;;;;;;;18.77;9.32;;;;;;;21.95;98.38;92673.69;4752306;30;20059;-76
2023/06/19 07:14:18;;;;;;;10.90;8.88;;;;;;;21.97;99.42;92671.44;4752959;30;20495;-77
2023/06/19 07:16:47;;;;;;;11.45;8.75;;;;;;;21.91;100.00;92670.19;4750882;30;20055;-76
2023/06/19 07:19:13;;;;;;;14.27;8.55;;;;;;;21.56;100.00;92677.13;4751804;30;20056;-76
2023/06/19 07:21:39;;;;;;;10.73;8.88;;;;;;;21.72;100.00;92689.63;4736507;30;20044;-76
2023/06/19 07:24:05;;;;;;;13.50;8.68;;;;;;;21.89;100.00;92688.44;4751963;30;20385;-76
2023/06/19 07:26:31;;;;;;;12.77;8.30;;;;;;;21.98;98.62;92686.31;4753281;30;20040;-76
2023/06/19 07:28:58;;;;;;;11.30;8.55;;;;;;;21.89;99.09;92697.19;4750897;30;20067;-75
2023/06/19 07:31:23;;;;;;;12.07;8.32;;;;;;;21.90;98.41;92695.31;4752332;30;20496;-76
2023/06/19 07:33:49;;;;;;;11.75;8.45;;;;;;;21.87;99.41;92696.00;4752031;30;20526;-76
2023/06/19 07:36:15;;;;;;;11.80;8.50;;;;;;;21.75;98.85;92692.38;4761679;30;20110;-76
2023/06/19 07:38:45;;;;;;;12.10;8.40;;;;;;;21.76;100.00;92695.78;4753674;30;20134;-76
2023/06/19 07:41:11;;;;;;;13.05;8.68;;;;;;;21.81;98.46;92700.84;4769231;30;20591;-76
2023/06/19 07:43:40;;;;;;;12.20;8.43;;;;;;;21.78;97.47;92704.97;4769408;30;20039;-76
2023/06/19 07:46:05;;;;;;;14.15;9.00;;;;;;;21.63;100.00;92698.59;4767710;30;20035;-76
2023/06/19 07:48:31;;;;;;;12.07;8.27;;;;;;;21.97;96.33;92701.53;4769532;30;20517;-76
2023/06/19 07:50:56;;;;;;;14.00;8.50;;;;;;;22.04;96.32;92703.56;4768532;30;20044;-76
2023/06/19 07:53:22;;;;;;;11.52;8.18;;;;;;;22.07;96.63;92707.44;4769449;30;20044;-76
2023/06/19 07:55:48;;;;;;;11.20;8.00;;;;;;;22.00;96.55;92706.16;4767493;30;20048;-76
2023/06/19 07:58:13;;;;;;;9.40;7.82;;;;;;;22.05;96.64;92710.44;4759343;30;20044;-76
2023/06/19 08:00:39;;;;;;;12.32;8.02;;;;;;;22.18;95.51;92711.06;4769131;30;20089;-76
2023/06/19 08:03:05;;;;;;;13.57;7.82;;;;;;;22.39;94.01;92711.47;4769225;30;20047;-76
2023/06/19 08:05:31;;;;;;;11.10;8.02;;;;;;;22.49;93.08;92714.69;4768929;30;20510;-76
2023/06/19 08:07:59;;;;;;;10.63;8.43;;;;;;;22.32;92.73;92710.59;4758637;30;20379;-75
2023/06/19 08:10:24;;;;;;;10.98;7.88;;;;;;;22.39;92.56;92716.81;4751686;30;20046;-76
2023/06/19 08:12:50;;;;;;;40.10;12.73;;;;;;;22.49;92.90;92726.13;4750947;30;20127;-76
2023/06/19 08:15:15;;;;;;;11.43;8.23;;;;;;;22.65;91.58;92716.13;4751106;30;20040;-75
2023/06/19 08:17:42;;;;;;;11.32;8.13;;;;;;;22.82;91.14;92719.44;4754247;30;20062;-76
2023/06/19 08:20:08;;;;;;;11.50;8.32;;;;;;;23.17;88.65;92718.47;4768751;30;20085;-76
2023/06/19 08:22:35;;;;;;;10.45;8.10;;;;;;;23.27;87.27;92718.63;4768418;30;20050;-76
2023/06/19 08:25:01;;;;;;;11.55;8.50;;;;;;;23.42;84.70;92721.50;4751131;30;20123;-76
2023/06/19 08:27:27;;;;;;;15.20;8.60;;;;;;;23.38;87.67;92724.13;4751078;30;20499;-76
2023/06/19 08:29:53;;;;;;;11.95;8.00;;;;;;;23.75;82.74;92726.16;4751840;30;20043;-76
2023/06/19 08:32:19;;;;;;;14.35;7.93;;;;;;;23.67;86.11;92732.53;4750893;30;20071;-76
2023/06/19 08:34:45;;;;;;;11.10;8.40;;;;;;;23.46;85.67;92723.09;4750372;30;20044;-76
2023/06/19 08:37:10;;;;;;;10.57;8.57;;;;;;;23.67;88.47;92724.53;4750924;30;20040;-76
2023/06/19 08:39:37;;;;;;;10.05;7.50;;;;;;;23.56;87.23;92716.34;4750555;30;20059;-76
2023/06/19 08:42:07;;;;;;;24.08;9.82;;;;;;;23.15;90.84;92715.41;4750297;30;20048;-76
2023/06/19 08:44:34;;;;;;;12.50;8.80;;;;;;;22.93;87.01;92720.38;4750260;30;20032;-76
2023/06/19 08:47:01;;;;;;;11.93;8.73;;;;;;;22.71;89.27;92723.81;4750667;30;20431;-76
2023/06/19 08:49:30;;;;;;;11.52;8.38;;;;;;;22.50;91.50;92717.00;4750478;30;20478;-77
2023/06/19 08:51:55;;;;;;;11.10;8.40;;;;;;;22.51;88.79;92718.53;4750870;30;20040;-76
2023/06/19 08:54:21;;;;;;;11.75;8.27;;;;;;;22.72;92.77;92723.47;4750342;30;20564;-76
2023/06/19 08:56:47;;;;;;;11.82;8.88;;;;;;;22.51;90.77;92723.88;4748839;30;20048;-76
2023/06/19 08:59:15;;;;;;;14.00;9.45;;;;;;;22.80;93.45;92719.00;4750338;30;20040;-76
2023/06/19 09:01:51;;;;;;;13.60;9.13;;;;;;;22.94;87.42;92721.91;4750471;30;20141;-76
2023/06/19 09:04:19;;;;;;;9.45;7.15;;;;;;;23.08;86.47;92716.06;4748982;30;20420;-76
2023/06/19 09:06:52;;;;;;;13.02;8.35;;;;;;;23.22;88.30;92721.59;4757586;30;20051;-76
2023/06/19 09:09:20;;;;;;;10.75;8.48;;;;;;;23.36;85.29;92722.94;4766330;30;20043;-76
2023/06/19 09:12:07;;;;;;;10.63;8.52;;;;;;;23.27;80.61;92721.28;4766773;30;20134;-76
2023/06/19 09:14:39;;;;;;;12.13;8.43;;;;;;;23.20;84.73;92718.53;4752385;30;20048;-76
2023/06/19 09:17:07;;;;;;;10.48;7.88;;;;;;;23.35;81.14;92724.06;4767935;30;20097;-76
2023/06/19 09:19:36;;;;;;;10.80;7.93;;;;;;;23.23;79.13;92727.72;4766285;30;20182;-76
2023/06/19 09:22:04;;;;;;;14.55;8.25;;;;;;;23.09;78.57;92722.16;4767586;30;20043;-76
2023/06/19 09:24:37;;;;;;;12.68;7.70;;;;;;;23.32;80.34;92725.56;4766522;30;20469;-76
2023/06/19 09:27:21;;;;;;;10.77;8.05;;;;;;;23.46;78.63;92724.97;4767671;30;20079;-76
2023/06/19 09:29:49;;;;;;;10.60;7.88;;;;;;;23.31;78.07;92729.38;4767864;30;20051;-76
2023/06/19 09:32:15;;;;;;;10.23;8.10;;;;;;;23.54;74.79;92729.31;4766354;30;20499;-76
2023/06/19 09:34:41;;;;;;;8.63;6.65;;;;;;;23.59;73.21;92730.88;4751286;30;20040;-76
2023/06/19 09:37:08;;;;;;;11.85;8.13;;;;;;;23.63;74.50;92729.03;4767651;30;20051;-75
2023/06/19 09:39:37;;;;;;;11.15;7.88;;;;;;;23.70;75.84;92727.22;4767567;30;20090;-76
2023/06/19 09:42:03;;;;;;;10.25;7.40;;;;;;;23.93;73.86;92730.97;4767590;30;20075;-76
2023/06/19 09:44:39;;;;;;;12.27;7.88;;;;;;;23.86;73.97;92739.66;4765247;30;20136;-76
2023/06/19 09:47:17;;;;;;;10.63;7.40;;;;;;;23.80;71.99;92728.53;4749767;30;20127;-76
2023/06/19 09:49:48;;;;;;;10.13;7.57;;;;;;;23.94;74.27;92737.88;4748527;30;20051;-75
2023/06/19 09:52:14;;;;;;;14.73;7.63;;;;;;;23.98;73.00;92736.78;4749771;30;20032;-76
2023/06/19 09:54:43;;;;;;;12.10;7.65;;;;;;;23.95;74.16;92740.16;4750035;30;20044;-75
2023/06/19 09:57:10;;;;;;;15.10;7.13;;;;;;;24.05;75.42;92738.75;4749480;30;20048;-76
2023/06/19 09:59:38;;;;;;;11.27;7.57;;;;;;;24.17;71.48;92732.41;4750136;30;20040;-76
2023/06/19 10:02:06;;;;;;;10.05;7.25;;;;;;;23.96;72.79;92741.72;4749930;30;20044;-76
2023/06/19 10:04:44;;;;;;;10.77;7.55;;;;;;;24.01;73.64;92741.38;4749774;30;20041;-76
2023/06/19 10:07:21;;;;;;;12.63;6.55;;;;;;;24.08;73.33;92736.13;4751199;30;20470;-76
2023/06/19 10:09:56;;;;;;;10.43;7.32;;;;;;;24.17;73.76;92735.84;4751240;30;20123;-76
2023/06/19 10:12:22;;;;;;;11.27;7.00;;;;;;;24.27;71.00;92735.19;4752671;30;20082;-75
2023/06/19 10:14:49;;;;;;;10.73;7.50;;;;;;;24.29;71.15;92735.56;4752740;30;20576;-76
2023/06/19 10:17:17;;;;;;;9.32;7.22;;;;;;;24.21;72.14;92733.97;4752828;30;20181;-76
2023/06/19 10:19:52;;;;;;;9.13;7.32;;;;;;;24.31;70.58;92733.31;4752708;30;20052;-75
2023/06/19 10:22:21;;;;;;;10.30;6.97;;;;;;;24.27;72.07;92731.72;4755694;30;20787;-75
2023/06/19 10:24:50;;;;;;;9.82;7.35;;;;;;;24.45;72.43;92732.72;4768668;30;20411;-76
2023/06/19 10:27:21;;;;;;;11.40;7.25;;;;;;;24.42;69.79;92717.38;4769364;30;20044;-76
2023/06/19 10:29:53;;;;;;;11.15;7.50;;;;;;;24.59;70.06;92729.44;4770610;30;20043;-75
2023/06/19 10:32:18;;;;;;;8.30;4.95;;;;;;;24.43;69.32;92731.50;4770297;30;20107;-75
2023/06/19 10:34:51;;;;;;;12.75;7.65;;;;;;;24.15;67.65;92732.00;4767798;30;20058;-76
2023/06/19 10:37:16;;;;;;;11.82;6.95;;;;;;;24.17;69.78;92725.13;4769796;30;20376;-76
2023/06/19 10:39:43;;;;;;;9.85;7.53;;;;;;;24.17;65.54;92727.81;4768850;30;20059;-76
2023/06/19 10:42:10;;;;;;;10.68;7.28;;;;;;;23.95;67.33;92726.03;4770302;30;20048;-75
2023/06/19 10:44:39;;;;;;;8.95;6.72;;;;;;;24.08;71.43;92728.09;4770604;30;20700;-76
2023/06/19 10:47:07;;;;;;;10.45;7.38;;;;;;;24.31;66.86;92721.84;4769185;30;20047;-75
2023/06/19 10:49:32;;;;;;;11.35;7.45;;;;;;;24.21;67.76;92722.53;4755312;30;20043;-75
2023/06/19 10:52:00;;;;;;;14.43;7.03;;;;;;;24.37;69.10;92731.09;4752222;30;20507;-75
2023/06/19 10:54:27;;;;;;;10.57;7.43;;;;;;;24.51;68.89;92728.56;4752022;30;20055;-76
2023/06/19 10:56:54;;;;;;;9.85;6.32;;;;;;;24.53;66.54;92728.22;4753480;30;20432;-75
2023/06/19 10:59:20;;;;;;;9.95;7.30;;;;;;;24.50;66.75;92723.63;4751059;30;20055;-75
2023/06/19 11:01:47;;;;;;;11.00;8.02;;;;;;;24.47;69.04;92726.97;4753206;30;20052;-75
2023/06/19 11:04:14;;;;;;;13.48;7.55;;;;;;;24.40;69.44;92735.69;4752145;30;20093;-75
2023/06/19 11:06:42;;;;;;;11.00;7.47;;;;;;;24.52;69.54;92726.69;4752196;30;20040;-76
2023/06/19 11:09:09;;;;;;;10.02;7.10;;;;;;;24.62;71.13;92717.97;4751795;30;20127;-76
2023/06/19 11:11:45;;;;;;;11.20;8.05;;;;;;;24.67;69.01;92728.34;4752036;30;20036;-76
2023/06/19 11:14:14;;;;;;;9.55;8.00;;;;;;;24.51;70.32;92725.91;4755212;30;20051;-75
2023/06/19 11:16:45;;;;;;;10.73;7.60;;;;;;;24.51;69.50;92717.13;4769877;30;20055;-75
2023/06/19 11:19:22;;;;;;;12.30;7.87;;;;;;;24.65;70.01;92719.91;4768684;30;20128;-76
2023/06/19 11:21:52;;;;;;;10.32;7.38;;;;;;;24.71;68.94;92710.41;4768227;30;20653;-75